Terminal Aerodrome Forecast
Issued by NWS

Home | Current Version | Previous Version | Text Only | Print | Product List | Glossary On
Versions: 1 2 3 4 5 6 7 8 9 10 11 12 13 14 15 16 17 18 19
000
FTUS43 KICT 231740 AAA
TAFRSL
TAF AMD
KRSL 231740Z 2318/2418 11005KT P6SM FEW050
     FM241000 VRB05KT P6SM SCT100
     FM241500 31007KT P6SM BKN060
     FM241700 33010KT P6SM OVC035=

USA.gov is the U.S. government's official web portal to all federal, state and local government web resources and services.